sensor_id;sensor_type;location;lat;lon;timestamp;pressure;altitude;pressure_sealevel;temperature;humidity
10115;BME280;5097;43.260;27.812;2023-05-10T00:01:48;100757.56;;;7.46;88.82
10115;BME280;5097;43.260;27.812;2023-05-10T00:04:32;100751.50;;;7.44;89.16
10115;BME280;5097;43.260;27.812;2023-05-10T00:07:18;100754.41;;;7.34;89.09
10115;BME280;5097;43.260;27.812;2023-05-10T00:10:01;100753.94;;;7.50;88.76
10115;BME280;5097;43.260;27.812;2023-05-10T00:12:46;100755.53;;;7.26;89.77
10115;BME280;5097;43.260;27.812;2023-05-10T00:15:30;100736.19;;;7.28;89.64
10115;BME280;5097;43.260;27.812;2023-05-10T00:18:14;100755.56;;;7.24;90.07
10115;BME280;5097;43.260;27.812;2023-05-10T00:20:58;100756.94;;;7.08;90.95
10115;BME280;5097;43.260;27.812;2023-05-10T00:23:44;100742.75;;;7.13;90.25
10115;BME280;5097;43.260;27.812;2023-05-10T00:26:28;100755.34;;;7.00;91.42
10115;BME280;5097;43.260;27.812;2023-05-10T00:29:13;100751.56;;;7.11;91.22
10115;BME280;5097;43.260;27.812;2023-05-10T00:31:57;100722.03;;;7.02;90.76
10115;BME280;5097;43.260;27.812;2023-05-10T00:34:41;100755.88;;;7.13;90.36
10115;BME280;5097;43.260;27.812;2023-05-10T00:37:25;100747.69;;;7.24;89.67
10115;BME280;5097;43.260;27.812;2023-05-10T00:40:12;100745.75;;;7.31;89.67
10115;BME280;5097;43.260;27.812;2023-05-10T00:43:01;100746.22;;;7.15;90.17
10115;BME280;5097;43.260;27.812;2023-05-10T00:45:45;100750.94;;;7.32;89.09
10115;BME280;5097;43.260;27.812;2023-05-10T00:48:30;100751.47;;;7.14;89.95
10115;BME280;5097;43.260;27.812;2023-05-10T00:51:14;100736.53;;;7.16;90.74
10115;BME280;5097;43.260;27.812;2023-05-10T00:53:59;100725.81;;;7.24;90.05
10115;BME280;5097;43.260;27.812;2023-05-10T00:56:45;100730.56;;;7.11;90.96
10115;BME280;5097;43.260;27.812;2023-05-10T00:59:31;100724.13;;;7.21;90.86
10115;BME280;5097;43.260;27.812;2023-05-10T01:02:16;100727.03;;;7.12;91.48
10115;BME280;5097;43.260;27.812;2023-05-10T01:05:00;100678.28;;;7.01;90.59
10115;BME280;5097;43.260;27.812;2023-05-10T01:07:46;100726.09;;;7.14;91.34
10115;BME280;5097;43.260;27.812;2023-05-10T01:10:31;100726.75;;;7.21;91.64
10115;BME280;5097;43.260;27.812;2023-05-10T01:13:30;100729.59;;;7.43;90.16
10115;BME280;5097;43.260;27.812;2023-05-10T01:16:16;100724.13;;;7.21;91.47
10115;BME280;5097;43.260;27.812;2023-05-10T01:19:04;100731.47;;;7.40;90.13
10115;BME280;5097;43.260;27.812;2023-05-10T01:21:55;100729.91;;;7.32;90.44
10115;BME280;5097;43.260;27.812;2023-05-10T01:28:11;100725.63;;;7.30;90.96
10115;BME280;5097;43.260;27.812;2023-05-10T01:31:11;100722.09;;;7.31;91.03
10115;BME280;5097;43.260;27.812;2023-05-10T01:34:06;100723.13;;;7.25;91.87
10115;BME280;5097;43.260;27.812;2023-05-10T01:36:55;100720.59;;;7.22;91.36
10115;BME280;5097;43.260;27.812;2023-05-10T01:39:45;100734.44;;;7.29;91.65
10115;BME280;5097;43.260;27.812;2023-05-10T01:42:36;100714.63;;;7.17;92.09
10115;BME280;5097;43.260;27.812;2023-05-10T01:45:28;100724.34;;;7.13;92.90
10115;BME280;5097;43.260;27.812;2023-05-10T01:48:14;100727.28;;;7.02;93.79
10115;BME280;5097;43.260;27.812;2023-05-10T01:51:01;100728.56;;;7.19;94.03
10115;BME280;5097;43.260;27.812;2023-05-10T01:53:47;100727.19;;;7.05;93.81
10115;BME280;5097;43.260;27.812;2023-05-10T01:56:35;100681.63;;;6.77;94.51
10115;BME280;5097;43.260;27.812;2023-05-10T01:59:22;100718.69;;;6.97;94.63
10115;BME280;5097;43.260;27.812;2023-05-10T02:02:10;100725.47;;;7.04;95.28
10115;BME280;5097;43.260;27.812;2023-05-10T02:04:57;100714.69;;;7.14;94.46
10115;BME280;5097;43.260;27.812;2023-05-10T02:07:43;100701.03;;;7.02;94.68
10115;BME280;5097;43.260;27.812;2023-05-10T02:10:28;100716.63;;;7.09;94.47
10115;BME280;5097;43.260;27.812;2023-05-10T02:13:13;100716.53;;;7.12;94.82
10115;BME280;5097;43.260;27.812;2023-05-10T02:15:59;100717.59;;;7.04;95.09
10115;BME280;5097;43.260;27.812;2023-05-10T02:18:43;100696.56;;;7.04;94.51
10115;BME280;5097;43.260;27.812;2023-05-10T02:21:29;100716.53;;;7.12;95.03
10115;BME280;5097;43.260;27.812;2023-05-10T02:24:15;100713.25;;;7.03;95.18
10115;BME280;5097;43.260;27.812;2023-05-10T02:27:00;100718.06;;;7.19;94.88
10115;BME280;5097;43.260;27.812;2023-05-10T02:29:46;100712.75;;;7.20;93.98
10115;BME280;5097;43.260;27.812;2023-05-10T02:32:31;100723.25;;;7.22;94.07
10115;BME280;5097;43.260;27.812;2023-05-10T02:35:16;100719.50;;;7.29;94.56
10115;BME280;5097;43.260;27.812;2023-05-10T02:38:01;100718.72;;;7.26;93.95
10115;BME280;5097;43.260;27.812;2023-05-10T02:40:47;100719.69;;;7.23;94.45
10115;BME280;5097;43.260;27.812;2023-05-10T02:43:32;100712.06;;;7.15;94.83
10115;BME280;5097;43.260;27.812;2023-05-10T02:46:17;100718.88;;;7.21;95.11
10115;BME280;5097;43.260;27.812;2023-05-10T02:49:01;100712.53;;;7.28;94.16
10115;BME280;5097;43.260;27.812;2023-05-10T02:51:50;100721.69;;;7.15;95.07
10115;BME280;5097;43.260;27.812;2023-05-10T02:54:41;100716.06;;;7.27;94.89
10115;BME280;5097;43.260;27.812;2023-05-10T02:57:33;100697.41;;;7.07;94.85
10115;BME280;5097;43.260;27.812;2023-05-10T03:00:18;100717.09;;;7.21;95.18
10115;BME280;5097;43.260;27.812;2023-05-10T03:03:02;100708.22;;;7.26;94.76
10115;BME280;5097;43.260;27.812;2023-05-10T03:05:46;100720.59;;;7.22;95.12
10115;BME280;5097;43.260;27.812;2023-05-10T03:08:31;100715.34;;;7.22;95.49
10115;BME280;5097;43.260;27.812;2023-05-10T03:11:25;100723.34;;;7.47;94.56
10115;BME280;5097;43.260;27.812;2023-05-10T03:14:25;100728.19;;;7.31;95.16
10115;BME280;5097;43.260;27.812;2023-05-10T03:17:17;100726.66;;;7.24;95.14
10115;BME280;5097;43.260;27.812;2023-05-10T03:20:08;100729.41;;;7.21;95.46
10115;BME280;5097;43.260;27.812;2023-05-10T03:22:57;100726.66;;;7.24;95.44
10115;BME280;5097;43.260;27.812;2023-05-10T03:25:47;100733.81;;;7.19;95.89
10115;BME280;5097;43.260;27.812;2023-05-10T03:28:33;100725.28;;;7.41;94.94
10115;BME280;5097;43.260;27.812;2023-05-10T03:31:20;100724.63;;;7.34;95.65
10115;BME280;5097;43.260;27.812;2023-05-10T03:34:05;100729.84;;;7.35;95.89
10115;BME280;5097;43.260;27.812;2023-05-10T03:36:49;100732.44;;;7.37;95.99
10115;BME280;5097;43.260;27.812;2023-05-10T03:39:34;100734.72;;;7.48;95.49
10115;BME280;5097;43.260;27.812;2023-05-10T03:42:21;100742.69;;;7.45;95.72
10115;BME280;5097;43.260;27.812;2023-05-10T03:45:06;100743.69;;;7.41;95.62
10115;BME280;5097;43.260;27.812;2023-05-10T03:47:52;100708.50;;;7.45;94.27
10115;BME280;5097;43.260;27.812;2023-05-10T03:50:36;100744.47;;;7.72;94.10
10115;BME280;5097;43.260;27.812;2023-05-10T03:53:20;100738.06;;;7.81;93.85
10115;BME280;5097;43.260;27.812;2023-05-10T03:56:05;100734.06;;;7.69;93.82
10115;BME280;5097;43.260;27.812;2023-05-10T03:58:50;100746.53;;;7.91;93.30
10115;BME280;5097;43.260;27.812;2023-05-10T04:01:35;100749.63;;;8.04;92.83
10115;BME280;5097;43.260;27.812;2023-05-10T04:04:20;100748.38;;;7.87;93.90
10115;BME280;5097;43.260;27.812;2023-05-10T04:07:05;100751.91;;;8.15;92.46
10115;BME280;5097;43.260;27.812;2023-05-10T04:09:49;100750.72;;;8.23;92.11
10115;BME280;5097;43.260;27.812;2023-05-10T04:12:33;100747.72;;;8.34;91.85
10115;BME280;5097;43.260;27.812;2023-05-10T04:15:17;100747.41;;;8.44;90.97
10115;BME280;5097;43.260;27.812;2023-05-10T04:18:01;100749.06;;;8.48;90.78
10115;BME280;5097;43.260;27.812;2023-05-10T04:20:49;100756.16;;;8.46;90.71
10115;BME280;5097;43.260;27.812;2023-05-10T04:23:33;100748.66;;;8.60;90.91
10115;BME280;5097;43.260;27.812;2023-05-10T04:26:17;100752.41;;;8.78;89.45
10115;BME280;5097;43.260;27.812;2023-05-10T04:29:01;100745.38;;;8.79;89.16
10115;BME280;5097;43.260;27.812;2023-05-10T04:31:45;100744.41;;;9.05;88.45
10115;BME280;5097;43.260;27.812;2023-05-10T04:34:29;100746.56;;;9.19;88.40
10115;BME280;5097;43.260;27.812;2023-05-10T04:37:14;100749.06;;;9.46;86.42
10115;BME280;5097;43.260;27.812;2023-05-10T04:39:59;100747.75;;;9.56;86.17
10115;BME280;5097;43.260;27.812;2023-05-10T04:42:45;100749.50;;;9.57;86.50
10115;BME280;5097;43.260;27.812;2023-05-10T04:45:29;100743.78;;;9.46;86.13
10115;BME280;5097;43.260;27.812;2023-05-10T04:48:13;100730.53;;;9.69;85.00
10115;BME280;5097;43.260;27.812;2023-05-10T04:50:57;100746.59;;;9.85;83.94
10115;BME280;5097;43.260;27.812;2023-05-10T04:53:43;100743.66;;;9.93;83.74
10115;BME280;5097;43.260;27.812;2023-05-10T04:56:43;100741.06;;;10.14;82.90
10115;BME280;5097;43.260;27.812;2023-05-10T04:59:27;100734.63;;;9.99;82.77
10115;BME280;5097;43.260;27.812;2023-05-10T05:02:11;100743.53;;;10.18;81.80
10115;BME280;5097;43.260;27.812;2023-05-10T05:04:56;100750.47;;;10.21;81.89
10115;BME280;5097;43.260;27.812;2023-05-10T05:07:41;100718.34;;;10.10;82.00
10115;BME280;5097;43.260;27.812;2023-05-10T05:10:27;100746.69;;;10.27;80.96
10115;BME280;5097;43.260;27.812;2023-05-10T05:13:12;100742.84;;;10.56;80.77
10115;BME280;5097;43.260;27.812;2023-05-10T05:15:56;100748.91;;;10.37;80.91
10115;BME280;5097;43.260;27.812;2023-05-10T05:18:40;100747.78;;;10.84;79.98
10115;BME280;5097;43.260;27.812;2023-05-10T05:21:25;100743.63;;;10.79;79.46
10115;BME280;5097;43.260;27.812;2023-05-10T05:24:10;100729.09;;;10.89;79.25
10115;BME280;5097;43.260;27.812;2023-05-10T05:26:56;100747.78;;;11.24;77.98
10115;BME280;5097;43.260;27.812;2023-05-10T05:29:40;100748.97;;;11.17;77.28
10115;BME280;5097;43.260;27.812;2023-05-10T05:32:25;100749.00;;;11.36;77.68
10115;BME280;5097;43.260;27.812;2023-05-10T05:35:09;100717.97;;;11.01;77.81
10115;BME280;5097;43.260;27.812;2023-05-10T05:37:53;100747.59;;;11.65;76.93
10115;BME280;5097;43.260;27.812;2023-05-10T05:40:38;100751.56;;;11.37;77.04
10115;BME280;5097;43.260;27.812;2023-05-10T05:43:24;100759.78;;;11.69;75.36
10115;BME280;5097;43.260;27.812;2023-05-10T05:46:08;100758.13;;;11.48;75.54
10115;BME280;5097;43.260;27.812;2023-05-10T05:48:52;100760.13;;;11.81;74.90
10115;BME280;5097;43.260;27.812;2023-05-10T05:51:36;100757.91;;;11.71;72.51
10115;BME280;5097;43.260;27.812;2023-05-10T05:54:20;100729.66;;;11.53;73.16
10115;BME280;5097;43.260;27.812;2023-05-10T05:57:04;100736.28;;;11.81;72.05
10115;BME280;5097;43.260;27.812;2023-05-10T05:59:49;100756.78;;;11.39;73.18
10115;BME280;5097;43.260;27.812;2023-05-10T06:02:33;100748.34;;;12.05;71.41
10115;BME280;5097;43.260;27.812;2023-05-10T06:05:18;100758.25;;;12.02;70.79
10115;BME280;5097;43.260;27.812;2023-05-10T06:08:02;100749.22;;;12.76;69.70
10115;BME280;5097;43.260;27.812;2023-05-10T06:10:47;100759.34;;;12.85;68.42
10115;BME280;5097;43.260;27.812;2023-05-10T06:13:30;100761.00;;;12.70;66.46
10115;BME280;5097;43.260;27.812;2023-05-10T06:16:19;100760.69;;;12.77;65.83
10115;BME280;5097;43.260;27.812;2023-05-10T06:19:03;100757.16;;;13.10;65.86
10115;BME280;5097;43.260;27.812;2023-05-10T06:21:47;100759.44;;;13.33;64.22
10115;BME280;5097;43.260;27.812;2023-05-10T06:24:33;100748.34;;;12.93;64.88
10115;BME280;5097;43.260;27.812;2023-05-10T06:27:17;100753.81;;;12.72;65.17
10115;BME280;5097;43.260;27.812;2023-05-10T06:30:01;100756.81;;;12.49;65.01
10115;BME280;5097;43.260;27.812;2023-05-10T06:32:56;100756.00;;;12.64;65.05
10115;BME280;5097;43.260;27.812;2023-05-10T06:35:40;100741.50;;;12.71;63.41
10115;BME280;5097;43.260;27.812;2023-05-10T06:38:24;100763.53;;;12.89;62.59
10115;BME280;5097;43.260;27.812;2023-05-10T06:41:10;100747.38;;;13.28;61.76
10115;BME280;5097;43.260;27.812;2023-05-10T06:43:54;100773.47;;;12.68;62.11
10115;BME280;5097;43.260;27.812;2023-05-10T06:46:38;100752.84;;;12.91;63.25
10115;BME280;5097;43.260;27.812;2023-05-10T06:49:23;100757.06;;;13.45;61.26
10115;BME280;5097;43.260;27.812;2023-05-10T06:52:07;100761.94;;;13.03;58.76
10115;BME280;5097;43.260;27.812;2023-05-10T06:54:51;100756.31;;;13.90;57.94
10115;BME280;5097;43.260;27.812;2023-05-10T06:57:35;100758.81;;;13.46;58.90
10115;BME280;5097;43.260;27.812;2023-05-10T07:00:21;100764.09;;;13.46;58.79
10115;BME280;5097;43.260;27.812;2023-05-10T07:03:05;100748.03;;;13.15;59.26
10115;BME280;5097;43.260;27.812;2023-05-10T07:05:51;100761.31;;;13.31;57.10
10115;BME280;5097;43.260;27.812;2023-05-10T07:08:35;100771.72;;;13.02;58.26
10115;BME280;5097;43.260;27.812;2023-05-10T07:11:19;100762.34;;;13.29;57.33
10115;BME280;5097;43.260;27.812;2023-05-10T07:14:03;100761.75;;;12.90;59.20
10115;BME280;5097;43.260;27.812;2023-05-10T07:16:47;100765.06;;;13.27;58.10
10115;BME280;5097;43.260;27.812;2023-05-10T07:19:31;100769.81;;;13.38;57.75
10115;BME280;5097;43.260;27.812;2023-05-10T07:22:17;100776.47;;;13.29;57.36
10115;BME280;5097;43.260;27.812;2023-05-10T07:25:01;100776.13;;;13.35;57.12
10115;BME280;5097;43.260;27.812;2023-05-10T07:27:46;100752.47;;;13.64;57.23
10115;BME280;5097;43.260;27.812;2023-05-10T07:30:31;100781.78;;;13.79;57.10
10115;BME280;5097;43.260;27.812;2023-05-10T07:33:15;100776.47;;;13.79;56.24
10115;BME280;5097;43.260;27.812;2023-05-10T07:36:00;100781.06;;;13.91;56.00
10115;BME280;5097;43.260;27.812;2023-05-10T07:38:45;100781.91;;;14.07;56.04
10115;BME280;5097;43.260;27.812;2023-05-10T07:41:29;100779.34;;;13.58;55.68
10115;BME280;5097;43.260;27.812;2023-05-10T07:44:15;100774.03;;;13.58;56.12
10115;BME280;5097;43.260;27.812;2023-05-10T07:47:01;100780.03;;;14.10;54.70
10115;BME280;5097;43.260;27.812;2023-05-10T07:49:45;100773.41;;;14.17;54.55
10115;BME280;5097;43.260;27.812;2023-05-10T07:52:29;100781.00;;;14.84;54.07
10115;BME280;5097;43.260;27.812;2023-05-10T07:55:15;100768.06;;;14.63;54.15
10115;BME280;5097;43.260;27.812;2023-05-10T07:58:01;100781.88;;;14.99;52.58
10115;BME280;5097;43.260;27.812;2023-05-10T08:00:46;100772.88;;;15.72;53.04
10115;BME280;5097;43.260;27.812;2023-05-10T08:03:31;100780.06;;;15.57;50.68
10115;BME280;5097;43.260;27.812;2023-05-10T08:06:15;100774.94;;;15.25;53.33
10115;BME280;5097;43.260;27.812;2023-05-10T08:08:59;100768.94;;;15.50;54.04
10115;BME280;5097;43.260;27.812;2023-05-10T08:11:44;100779.66;;;15.63;53.10
10115;BME280;5097;43.260;27.812;2023-05-10T08:14:29;100773.44;;;15.77;53.51
10115;BME280;5097;43.260;27.812;2023-05-10T08:17:13;100782.16;;;15.81;52.85
10115;BME280;5097;43.260;27.812;2023-05-10T08:19:57;100763.97;;;16.00;52.67
10115;BME280;5097;43.260;27.812;2023-05-10T08:22:41;100778.53;;;16.09;53.56
10115;BME280;5097;43.260;27.812;2023-05-10T08:25:25;100771.41;;;16.63;51.71
10115;BME280;5097;43.260;27.812;2023-05-10T08:28:11;100782.25;;;16.59;53.17
10115;BME280;5097;43.260;27.812;2023-05-10T08:30:55;100789.75;;;16.27;51.04
10115;BME280;5097;43.260;27.812;2023-05-10T08:33:39;100792.66;;;15.97;51.70
10115;BME280;5097;43.260;27.812;2023-05-10T08:36:26;100788.91;;;15.99;52.43
10115;BME280;5097;43.260;27.812;2023-05-10T08:39:10;100745.88;;;16.46;51.82
10115;BME280;5097;43.260;27.812;2023-05-10T08:42:08;100774.59;;;15.31;54.50
10115;BME280;5097;43.260;27.812;2023-05-10T08:44:56;100770.22;;;16.14;51.68
10115;BME280;5097;43.260;27.812;2023-05-10T08:47:41;100787.69;;;16.05;52.00
10115;BME280;5097;43.260;27.812;2023-05-10T08:50:25;100787.25;;;16.38;49.76
10115;BME280;5097;43.260;27.812;2023-05-10T08:53:12;100788.63;;;17.23;49.84
10115;BME280;5097;43.260;27.812;2023-05-10T08:55:57;100779.53;;;17.00;49.99
10115;BME280;5097;43.260;27.812;2023-05-10T08:58:41;100791.97;;;16.48;51.12
10115;BME280;5097;43.260;27.812;2023-05-10T09:01:26;100771.16;;;16.13;51.55
10115;BME280;5097;43.260;27.812;2023-05-10T09:04:12;100708.25;;;15.97;52.47
10115;BME280;5097;43.260;27.812;2023-05-10T09:06:56;100783.44;;;15.88;52.53
10115;BME280;5097;43.260;27.812;2023-05-10T09:09:40;100777.47;;;16.52;51.88
10115;BME280;5097;43.260;27.812;2023-05-10T09:12:24;100793.59;;;16.89;51.21
10115;BME280;5097;43.260;27.812;2023-05-10T09:15:09;100787.13;;;16.93;51.45
10115;BME280;5097;43.260;27.812;2023-05-10T09:17:55;100780.44;;;17.50;49.81
10115;BME280;5097;43.260;27.812;2023-05-10T09:20:40;100771.78;;;17.84;48.50
10115;BME280;5097;43.260;27.812;2023-05-10T09:23:24;100777.47;;;17.92;47.88
10115;BME280;5097;43.260;27.812;2023-05-10T09:26:14;100778.56;;;17.26;50.40
10115;BME280;5097;43.260;27.812;2023-05-10T09:29:00;100762.72;;;18.11;48.45
10115;BME280;5097;43.260;27.812;2023-05-10T09:31:47;100759.13;;;17.37;49.32
10115;BME280;5097;43.260;27.812;2023-05-10T09:34:35;100778.03;;;17.34;50.41
10115;BME280;5097;43.260;27.812;2023-05-10T09:37:29;100788.97;;;16.52;51.92
10115;BME280;5097;43.260;27.812;2023-05-10T09:40:15;100775.75;;;17.54;49.98
10115;BME280;5097;43.260;27.812;2023-05-10T09:43:02;100776.09;;;17.73;49.50
10115;BME280;5097;43.260;27.812;2023-05-10T09:45:48;100776.88;;;17.13;50.25
10115;BME280;5097;43.260;27.812;2023-05-10T09:48:32;100786.94;;;16.96;50.42
10115;BME280;5097;43.260;27.812;2023-05-10T09:51:21;100784.38;;;16.41;50.41
10115;BME280;5097;43.260;27.812;2023-05-10T09:54:10;100789.66;;;16.82;51.15
10115;BME280;5097;43.260;27.812;2023-05-10T09:56:54;100670.84;;;16.12;50.47
10115;BME280;5097;43.260;27.812;2023-05-10T09:59:42;100786.59;;;18.49;47.39
10115;BME280;5097;43.260;27.812;2023-05-10T10:02:28;100776.44;;;16.93;49.39
10115;BME280;5097;43.260;27.812;2023-05-10T10:05:13;100778.66;;;17.51;50.27
10115;BME280;5097;43.260;27.812;2023-05-10T10:08:00;100784.53;;;18.53;47.88
10115;BME280;5097;43.260;27.812;2023-05-10T10:10:44;100782.63;;;17.32;48.43
10115;BME280;5097;43.260;27.812;2023-05-10T10:13:29;100777.47;;;17.55;49.08
10115;BME280;5097;43.260;27.812;2023-05-10T10:16:14;100776.97;;;17.74;48.13
10115;BME280;5097;43.260;27.812;2023-05-10T10:18:59;100794.19;;;17.07;49.81
10115;BME280;5097;43.260;27.812;2023-05-10T10:21:43;100793.75;;;17.26;49.53
10115;BME280;5097;43.260;27.812;2023-05-10T10:24:28;100790.09;;;18.50;48.18
10115;BME280;5097;43.260;27.812;2023-05-10T10:27:21;100778.44;;;18.98;46.04
10115;BME280;5097;43.260;27.812;2023-05-10T10:30:14;100777.00;;;18.22;47.24
10115;BME280;5097;43.260;27.812;2023-05-10T10:33:17;100785.84;;;16.05;51.85
10115;BME280;5097;43.260;27.812;2023-05-10T10:36:12;100791.69;;;16.65;51.79
10115;BME280;5097;43.260;27.812;2023-05-10T10:38:57;100795.84;;;16.02;53.24
10115;BME280;5097;43.260;27.812;2023-05-10T10:41:51;100797.88;;;15.98;53.43
10115;BME280;5097;43.260;27.812;2023-05-10T10:44:37;100783.25;;;16.31;52.92
10115;BME280;5097;43.260;27.812;2023-05-10T10:47:28;100768.59;;;16.11;51.68
10115;BME280;5097;43.260;27.812;2023-05-10T10:50:15;100758.22;;;15.79;52.67
10115;BME280;5097;43.260;27.812;2023-05-10T10:53:10;100771.44;;;16.35;51.25
10115;BME280;5097;43.260;27.812;2023-05-10T10:56:05;100787.06;;;16.54;51.68
10115;BME280;5097;43.260;27.812;2023-05-10T10:58:52;100768.13;;;15.77;52.10
10115;BME280;5097;43.260;27.812;2023-05-10T11:01:36;100768.78;;;17.01;50.22
10115;BME280;5097;43.260;27.812;2023-05-10T11:04:26;100796.13;;;16.92;50.52
10115;BME280;5097;43.260;27.812;2023-05-10T11:07:17;100797.75;;;16.67;49.67
10115;BME280;5097;43.260;27.812;2023-05-10T11:10:04;100792.94;;;15.78;52.62
10115;BME280;5097;43.260;27.812;2023-05-10T11:12:52;100807.25;;;16.71;50.28
10115;BME280;5097;43.260;27.812;2023-05-10T11:15:43;100790.44;;;16.97;50.66
10115;BME280;5097;43.260;27.812;2023-05-10T11:18:32;100786.44;;;17.54;48.12
10115;BME280;5097;43.260;27.812;2023-05-10T11:21:16;100793.69;;;18.02;47.78
10115;BME280;5097;43.260;27.812;2023-05-10T11:24:01;100785.00;;;17.24;49.34
10115;BME280;5097;43.260;27.812;2023-05-10T11:26:49;100779.69;;;17.98;46.40
10115;BME280;5097;43.260;27.812;2023-05-10T11:29:35;100796.00;;;16.40;49.28
10115;BME280;5097;43.260;27.812;2023-05-10T11:32:21;100770.47;;;17.02;47.45
10115;BME280;5097;43.260;27.812;2023-05-10T11:35:09;100785.97;;;17.60;46.58
10115;BME280;5097;43.260;27.812;2023-05-10T11:37:53;100798.72;;;16.26;50.31
10115;BME280;5097;43.260;27.812;2023-05-10T11:40:38;100783.25;;;16.84;49.43
10115;BME280;5097;43.260;27.812;2023-05-10T11:43:25;100793.44;;;17.68;47.57
10115;BME280;5097;43.260;27.812;2023-05-10T11:46:13;100770.28;;;17.05;48.52
10115;BME280;5097;43.260;27.812;2023-05-10T11:49:00;100757.66;;;17.07;48.19
10115;BME280;5097;43.260;27.812;2023-05-10T11:51:47;100788.50;;;17.74;46.41
10115;BME280;5097;43.260;27.812;2023-05-10T11:54:31;100759.19;;;17.49;47.96
10115;BME280;5097;43.260;27.812;2023-05-10T11:57:18;100750.53;;;16.42;49.82
10115;BME280;5097;43.260;27.812;2023-05-10T12:00:04;100787.53;;;16.87;48.88
10115;BME280;5097;43.260;27.812;2023-05-10T12:02:49;100785.22;;;16.42;50.03
10115;BME280;5097;43.260;27.812;2023-05-10T12:05:35;100775.47;;;17.33;48.15
10115;BME280;5097;43.260;27.812;2023-05-10T12:08:21;100774.03;;;16.50;49.53
10115;BME280;5097;43.260;27.812;2023-05-10T12:11:07;100783.53;;;16.14;50.56
10115;BME280;5097;43.260;27.812;2023-05-10T12:13:53;100784.38;;;15.72;50.58
10115;BME280;5097;43.260;27.812;2023-05-10T12:16:37;100763.25;;;15.98;51.33
10115;BME280;5097;43.260;27.812;2023-05-10T12:19:22;100769.03;;;16.58;50.75
10115;BME280;5097;43.260;27.812;2023-05-10T12:22:08;100769.41;;;15.57;51.54
10115;BME280;5097;43.260;27.812;2023-05-10T12:24:52;100775.25;;;15.76;51.55
10115;BME280;5097;43.260;27.812;2023-05-10T12:27:36;100734.44;;;16.31;48.77
10115;BME280;5097;43.260;27.812;2023-05-10T12:30:22;100762.53;;;16.49;48.81
10115;BME280;5097;43.260;27.812;2023-05-10T12:33:11;100752.28;;;16.56;49.73
10115;BME280;5097;43.260;27.812;2023-05-10T12:35:59;100762.97;;;16.82;48.31
10115;BME280;5097;43.260;27.812;2023-05-10T12:38:46;100765.59;;;16.30;49.11
10115;BME280;5097;43.260;27.812;2023-05-10T12:41:31;100744.91;;;16.47;49.54
10115;BME280;5097;43.260;27.812;2023-05-10T12:44:14;100742.03;;;15.97;49.46
10115;BME280;5097;43.260;27.812;2023-05-10T12:46:59;100742.66;;;16.28;49.45
10115;BME280;5097;43.260;27.812;2023-05-10T12:49:43;100732.84;;;16.54;48.38
10115;BME280;5097;43.260;27.812;2023-05-10T12:52:27;100752.75;;;15.95;50.19
10115;BME280;5097;43.260;27.812;2023-05-10T12:55:12;100747.09;;;16.14;50.29
10115;BME280;5097;43.260;27.812;2023-05-10T12:57:56;100746.91;;;16.30;48.96
10115;BME280;5097;43.260;27.812;2023-05-10T13:00:40;100750.31;;;16.32;48.72
10115;BME280;5097;43.260;27.812;2023-05-10T13:03:25;100748.59;;;15.76;50.33
10115;BME280;5097;43.260;27.812;2023-05-10T13:06:09;100745.78;;;15.65;49.66
10115;BME280;5097;43.260;27.812;2023-05-10T13:08:53;100740.28;;;16.23;49.53
10115;BME280;5097;43.260;27.812;2023-05-10T13:11:38;100740.94;;;16.27;48.22
10115;BME280;5097;43.260;27.812;2023-05-10T13:14:22;100726.06;;;16.09;48.47
10115;BME280;5097;43.260;27.812;2023-05-10T13:17:06;100728.88;;;15.94;49.42
10115;BME280;5097;43.260;27.812;2023-05-10T13:19:50;100730.53;;;16.49;49.07
10115;BME280;5097;43.260;27.812;2023-05-10T13:22:34;100722.84;;;17.09;47.32
10115;BME280;5097;43.260;27.812;2023-05-10T13:25:22;100736.59;;;16.64;47.26
10115;BME280;5097;43.260;27.812;2023-05-10T13:28:07;100715.56;;;17.24;46.56
10115;BME280;5097;43.260;27.812;2023-05-10T13:30:51;100720.19;;;18.07;44.56
10115;BME280;5097;43.260;27.812;2023-05-10T13:33:35;100717.00;;;17.41;46.23
10115;BME280;5097;43.260;27.812;2023-05-10T13:36:19;100726.63;;;17.68;45.55
10115;BME280;5097;43.260;27.812;2023-05-10T13:39:03;100729.94;;;16.97;46.37
10115;BME280;5097;43.260;27.812;2023-05-10T13:41:47;100693.81;;;16.79;46.73
10115;BME280;5097;43.260;27.812;2023-05-10T13:44:33;100711.97;;;16.73;47.04
10115;BME280;5097;43.260;27.812;2023-05-10T13:47:17;100666.63;;;16.73;46.93
10115;BME280;5097;43.260;27.812;2023-05-10T13:50:01;100644.53;;;16.33;47.80
10115;BME280;5097;43.260;27.812;2023-05-10T13:52:47;100704.16;;;17.59;46.16
10115;BME280;5097;43.260;27.812;2023-05-10T13:55:31;100702.69;;;18.15;45.37
10115;BME280;5097;43.260;27.812;2023-05-10T13:58:16;100712.94;;;16.98;46.31
10115;BME280;5097;43.260;27.812;2023-05-10T14:01:01;100708.56;;;16.05;49.85
10115;BME280;5097;43.260;27.812;2023-05-10T14:03:45;100707.47;;;16.87;48.14
10115;BME280;5097;43.260;27.812;2023-05-10T14:06:29;100706.81;;;18.07;45.44
10115;BME280;5097;43.260;27.812;2023-05-10T14:09:13;100707.66;;;17.84;44.66
10115;BME280;5097;43.260;27.812;2023-05-10T14:11:57;100712.88;;;17.61;45.01
10115;BME280;5097;43.260;27.812;2023-05-10T14:14:41;100709.50;;;16.57;48.61
10115;BME280;5097;43.260;27.812;2023-05-10T14:17:26;100721.88;;;16.46;48.28
10115;BME280;5097;43.260;27.812;2023-05-10T14:20:11;100659.59;;;16.47;48.06
10115;BME280;5097;43.260;27.812;2023-05-10T14:22:55;100719.88;;;16.88;47.69
10115;BME280;5097;43.260;27.812;2023-05-10T14:25:40;100726.63;;;16.15;49.62
10115;BME280;5097;43.260;27.812;2023-05-10T14:28:24;100722.44;;;16.89;47.84
10115;BME280;5097;43.260;27.812;2023-05-10T14:31:08;100730.22;;;16.01;48.63
10115;BME280;5097;43.260;27.812;2023-05-10T14:33:53;100719.75;;;17.02;47.35